createdAt,value
2018-02-16T00:00:41.122Z,962.78
2018-02-16T00:01:41.238Z,962.78
2018-02-16T00:03:32.887Z,962.78
2018-02-16T00:04:33.064Z,962.82
2018-02-16T00:06:25.474Z,962.84
2018-02-16T00:07:25.649Z,962.86
2018-02-16T00:09:17.234Z,962.87
2018-02-16T00:10:17.360Z,962.83
2018-02-16T00:12:08.955Z,962.83
2018-02-16T00:13:09.158Z,962.81
2018-02-16T00:15:00.721Z,962.82
2018-02-16T00:16:00.843Z,962.81
2018-02-16T00:17:52.439Z,962.80
2018-02-16T00:18:52.558Z,962.77
2018-02-16T00:20:44.200Z,962.80
2018-02-16T00:21:44.253Z,962.78
2018-02-16T00:23:35.939Z,962.78
2018-02-16T00:24:36.053Z,962.82
2018-02-16T00:26:27.659Z,962.81
2018-02-16T00:27:27.772Z,962.83
2018-02-16T00:29:19.433Z,962.78
2018-02-16T00:30:19.572Z,962.79
2018-02-16T00:32:11.149Z,962.84
2018-02-16T00:33:11.274Z,962.92
2018-02-16T00:35:02.909Z,962.87
2018-02-16T00:36:03.080Z,962.90
2018-02-16T00:37:54.631Z,962.87
2018-02-16T00:38:54.760Z,962.87
2018-02-16T00:40:46.391Z,962.90
2018-02-16T00:41:46.559Z,962.91
2018-02-16T00:43:38.113Z,962.93
2018-02-16T00:44:38.276Z,962.98
2018-02-16T00:46:29.875Z,963.01
2018-02-16T00:47:29.992Z,963.00
2018-02-16T00:49:21.608Z,963.04
2018-02-16T00:50:21.889Z,963.02
2018-02-16T00:52:13.365Z,963.06
2018-02-16T00:53:13.495Z,962.97
2018-02-16T00:55:05.084Z,962.96
2018-02-16T00:56:05.033Z,962.98
2018-02-16T00:57:57.044Z,962.95
2018-02-16T00:58:56.772Z,962.94
2018-02-16T01:00:48.580Z,963.05
2018-02-16T01:01:48.530Z,963.02
2018-02-16T01:03:40.361Z,963.08
2018-02-16T01:04:40.289Z,963.06
2018-02-16T01:06:32.124Z,963.11
2018-02-16T01:07:32.046Z,963.13
2018-02-16T01:09:23.860Z,963.22
2018-02-16T01:10:23.918Z,963.20
2018-02-16T01:12:15.640Z,963.20
2018-02-16T01:13:15.795Z,963.19
2018-02-16T01:15:07.366Z,963.25
2018-02-16T01:16:07.495Z,963.22
2018-02-16T01:17:59.128Z,963.25
2018-02-16T01:18:59.282Z,963.26
2018-02-16T01:20:50.856Z,963.25
2018-02-16T01:21:50.998Z,963.29
2018-02-16T01:23:42.637Z,963.32
2018-02-16T01:24:42.806Z,963.32
2018-02-16T01:26:34.363Z,963.37
2018-02-16T01:27:34.420Z,963.32
2018-02-16T01:29:26.130Z,963.37
2018-02-16T01:30:26.355Z,963.42
2018-02-16T01:32:17.849Z,963.45
2018-02-16T01:33:18.001Z,963.44
2018-02-16T01:35:09.612Z,963.36
2018-02-16T01:36:09.558Z,963.38
2018-02-16T01:38:01.333Z,963.52
2018-02-16T01:39:01.515Z,963.56
2018-02-16T01:40:53.099Z,963.57
2018-02-16T01:41:53.214Z,963.53
2018-02-16T01:43:44.850Z,963.50
2018-02-16T01:44:45.020Z,963.50
2018-02-16T01:46:36.570Z,963.57
2018-02-16T01:47:36.688Z,963.55
2018-02-16T01:49:28.334Z,963.61
2018-02-16T01:50:28.413Z,963.59
2018-02-16T01:52:20.049Z,963.66
2018-02-16T01:53:20.236Z,963.66
2018-02-16T01:55:11.812Z,963.65
2018-02-16T01:56:11.759Z,963.68
2018-02-16T01:58:03.530Z,963.65
2018-02-16T01:59:03.724Z,963.69
2018-02-16T02:00:55.298Z,963.66
2018-02-16T02:01:55.439Z,963.66
2018-02-16T02:03:47.013Z,963.69
2018-02-16T02:04:47.139Z,963.69
2018-02-16T02:06:38.780Z,963.71
2018-02-16T02:07:38.923Z,963.68
2018-02-16T02:09:30.501Z,963.69
2018-02-16T02:10:30.635Z,963.70
2018-02-16T02:12:22.265Z,963.74
2018-02-16T02:13:22.436Z,963.75
2018-02-16T02:15:13.982Z,963.77
2018-02-16T02:16:13.951Z,963.74
2018-02-16T02:18:05.754Z,963.79
2018-02-16T02:19:05.851Z,963.82
2018-02-16T02:20:57.475Z,963.85
2018-02-16T02:21:57.639Z,963.83
2018-02-16T02:23:49.237Z,963.86
2018-02-16T02:24:49.331Z,963.82
2018-02-16T02:26:40.963Z,963.87
2018-02-16T02:27:41.138Z,963.85
2018-02-16T02:29:32.725Z,963.92
2018-02-16T02:30:32.837Z,963.89
2018-02-16T02:32:24.484Z,963.93
2018-02-16T02:33:24.660Z,963.90
2018-02-16T02:35:16.184Z,963.94
2018-02-16T02:36:16.359Z,963.90
2018-02-16T02:38:07.945Z,963.92
2018-02-16T02:39:08.048Z,963.90
2018-02-16T02:40:59.665Z,963.89
2018-02-16T02:41:59.849Z,963.90
2018-02-16T02:43:51.425Z,963.92
2018-02-16T02:44:51.542Z,963.97
2018-02-16T02:46:43.150Z,963.99
2018-02-16T02:47:43.244Z,964.00
2018-02-16T02:49:34.912Z,964.09
2018-02-16T02:50:35.060Z,964.14
2018-02-16T02:52:26.631Z,964.18
2018-02-16T02:53:26.762Z,964.22
2018-02-16T02:55:18.390Z,964.28
2018-02-16T02:56:18.335Z,964.30
2018-02-16T02:58:10.174Z,964.33
2018-02-16T02:59:10.056Z,964.35
2018-02-16T03:01:01.887Z,964.37
2018-02-16T03:02:01.820Z,964.33
2018-02-16T03:03:53.627Z,964.35
2018-02-16T03:04:53.575Z,964.38
2018-02-16T03:06:45.399Z,964.43
2018-02-16T03:07:45.332Z,964.48
2018-02-16T03:09:37.145Z,964.55
2018-02-16T03:10:37.095Z,964.56
2018-02-16T03:12:28.922Z,964.54
2018-02-16T03:13:28.853Z,964.57
2018-02-16T03:15:20.685Z,964.56
2018-02-16T03:16:20.613Z,964.59
2018-02-16T03:18:12.426Z,964.67
2018-02-16T03:19:12.376Z,964.70
2018-02-16T03:21:04.202Z,964.75
2018-02-16T03:22:04.145Z,964.76
2018-02-16T03:23:55.942Z,964.86
2018-02-16T03:24:55.894Z,964.85
2018-02-16T03:26:47.703Z,964.91
2018-02-16T03:27:47.633Z,964.92
2018-02-16T03:29:39.446Z,964.97
2018-02-16T03:30:39.395Z,965.00
2018-02-16T03:32:31.226Z,964.95
2018-02-16T03:33:31.157Z,964.96
2018-02-16T03:35:22.950Z,964.93
2018-02-16T03:36:22.903Z,964.99
2018-02-16T03:38:14.729Z,964.99
2018-02-16T03:39:14.661Z,964.99
2018-02-16T03:41:06.475Z,964.98
2018-02-16T03:42:06.422Z,964.97
2018-02-16T03:43:58.251Z,965.00
2018-02-16T03:44:58.181Z,965.08
2018-02-16T03:46:49.975Z,965.08
2018-02-16T03:47:49.926Z,965.05
2018-02-16T03:49:41.753Z,965.05
2018-02-16T03:50:41.683Z,965.09
2018-02-16T03:52:33.496Z,965.05
2018-02-16T03:53:33.446Z,965.11
2018-02-16T03:55:25.255Z,965.06
2018-02-16T03:56:25.187Z,965.08
2018-02-16T03:58:16.997Z,965.17
2018-02-16T03:59:16.945Z,965.16
2018-02-16T04:01:08.774Z,965.22
2018-02-16T04:02:08.706Z,965.25
2018-02-16T04:04:00.516Z,965.27
2018-02-16T04:05:00.471Z,965.26
2018-02-16T04:06:52.295Z,965.32
2018-02-16T04:07:52.224Z,965.29
2018-02-16T04:09:44.076Z,965.32
2018-02-16T04:10:43.983Z,965.37
2018-02-16T04:12:35.792Z,965.40
2018-02-16T04:13:35.744Z,965.37
2018-02-16T04:15:27.561Z,965.38
2018-02-16T04:16:27.487Z,965.40
2018-02-16T04:18:19.298Z,965.42
2018-02-16T04:19:19.246Z,965.45
2018-02-16T04:21:11.073Z,965.43
2018-02-16T04:22:11.011Z,965.47
2018-02-16T04:24:02.817Z,965.48
2018-02-16T04:25:02.765Z,965.48
2018-02-16T04:26:54.597Z,965.49
2018-02-16T04:27:54.527Z,965.51
2018-02-16T04:29:47.307Z,965.51
2018-02-16T04:30:47.258Z,965.53
2018-02-16T04:31:47.439Z,965.49
2018-02-16T04:32:47.170Z,965.53
2018-02-16T04:33:47.128Z,965.58
2018-02-16T04:34:47.128Z,965.64
2018-02-16T04:35:47.041Z,965.63
2018-02-16T04:36:47.016Z,965.67
2018-02-16T04:37:46.953Z,965.66
2018-02-16T04:38:47.122Z,965.70
2018-02-16T04:39:46.866Z,965.79
2018-02-16T04:40:46.821Z,965.74
2018-02-16T04:41:46.842Z,965.83
2018-02-16T04:42:46.735Z,965.81
2018-02-16T04:43:46.928Z,965.80
2018-02-16T04:44:46.648Z,965.80
2018-02-16T04:45:46.603Z,965.79
2018-02-16T04:46:46.672Z,965.75
2018-02-16T04:47:46.516Z,965.80
2018-02-16T04:48:46.641Z,965.78
2018-02-16T04:49:46.430Z,965.82
2018-02-16T04:50:46.386Z,965.83
2018-02-16T04:51:46.397Z,965.87
2018-02-16T04:52:46.300Z,965.85
2018-02-16T04:53:46.437Z,965.87
2018-02-16T04:54:46.211Z,965.87
2018-02-16T04:55:46.168Z,965.89
2018-02-16T04:56:46.125Z,965.89
2018-02-16T04:57:46.080Z,965.88
2018-02-16T04:58:46.248Z,965.93
2018-02-16T04:59:45.993Z,965.93
2018-02-16T05:00:45.949Z,965.90
2018-02-16T05:01:45.946Z,965.90
2018-02-16T05:02:45.861Z,965.92
2018-02-16T05:03:46.028Z,965.96
2018-02-16T05:04:45.778Z,965.97
2018-02-16T05:05:45.732Z,966.02
2018-02-16T05:06:45.780Z,966.01
2018-02-16T05:07:45.646Z,966.05
2018-02-16T05:08:45.842Z,966.09
2018-02-16T05:09:45.558Z,966.09
2018-02-16T05:10:45.515Z,966.09
2018-02-16T05:11:45.609Z,966.13
2018-02-16T05:12:45.427Z,966.07
2018-02-16T05:13:45.545Z,966.09
2018-02-16T05:14:45.342Z,966.08
2018-02-16T05:15:45.299Z,966.08
2018-02-16T05:16:45.312Z,966.08
2018-02-16T05:17:45.210Z,966.14
2018-02-16T05:18:45.349Z,966.08
2018-02-16T05:19:45.122Z,966.09
2018-02-16T05:20:45.076Z,966.08
2018-02-16T05:21:45.074Z,966.11
2018-02-16T05:22:44.988Z,966.16
2018-02-16T05:23:45.152Z,966.22
2018-02-16T05:24:44.904Z,966.19
2018-02-16T05:25:44.859Z,966.24
2018-02-16T05:26:44.854Z,966.23
2018-02-16T05:27:44.773Z,966.23
2018-02-16T05:28:44.962Z,966.24
2018-02-16T05:29:44.685Z,966.25
2018-02-16T05:30:44.640Z,966.27
2018-02-16T05:31:44.716Z,966.33
2018-02-16T05:32:44.551Z,966.35
2018-02-16T05:33:44.773Z,966.33
2018-02-16T05:34:44.467Z,966.37
2018-02-16T05:35:44.423Z,966.44
2018-02-16T05:36:44.420Z,966.48
2018-02-16T05:37:44.337Z,966.53
2018-02-16T05:38:44.458Z,966.60
2018-02-16T05:39:44.249Z,966.61
2018-02-16T05:40:44.203Z,966.59
2018-02-16T05:41:44.201Z,966.64
2018-02-16T05:42:44.118Z,966.66
2018-02-16T05:43:44.286Z,966.67
2018-02-16T05:44:44.041Z,966.63
2018-02-16T05:45:43.986Z,966.57
2018-02-16T05:46:45.021Z,966.58
2018-02-16T05:47:43.901Z,966.54
2018-02-16T05:48:44.068Z,966.56
2018-02-16T05:49:43.814Z,966.60
2018-02-16T05:50:43.767Z,966.62
2018-02-16T05:51:43.765Z,966.68
2018-02-16T05:52:43.682Z,966.72
2018-02-16T05:53:43.864Z,966.73
2018-02-16T05:54:43.600Z,966.70
2018-02-16T05:55:43.552Z,966.69
2018-02-16T05:56:43.529Z,966.67
2018-02-16T05:57:43.465Z,966.68
2018-02-16T05:58:43.586Z,966.66
2018-02-16T05:59:43.383Z,966.64
2018-02-16T06:00:43.333Z,966.59
2018-02-16T06:01:43.380Z,966.59
2018-02-16T06:02:43.244Z,966.62
2018-02-16T06:03:43.376Z,966.68
2018-02-16T06:04:43.158Z,966.77
2018-02-16T06:05:43.114Z,966.83
2018-02-16T06:06:43.108Z,966.85
2018-02-16T06:07:43.027Z,966.89
2018-02-16T06:08:43.187Z,966.95
2018-02-16T06:09:42.938Z,967.01
2018-02-16T06:10:42.896Z,967.05
2018-02-16T06:11:42.933Z,967.07
2018-02-16T06:12:42.813Z,967.11
2018-02-16T06:13:43.009Z,967.12
2018-02-16T06:14:42.721Z,967.13
2018-02-16T06:15:42.676Z,967.15
2018-02-16T06:16:42.761Z,967.12
2018-02-16T06:17:42.593Z,967.10
2018-02-16T06:18:42.788Z,967.10
2018-02-16T06:19:42.506Z,967.17
2018-02-16T06:20:42.459Z,967.21
2018-02-16T06:21:42.486Z,967.25
2018-02-16T06:22:42.371Z,967.27
2018-02-16T06:23:42.505Z,967.30
2018-02-16T06:24:42.285Z,967.35
2018-02-16T06:25:42.246Z,967.40
2018-02-16T06:26:42.295Z,967.43
2018-02-16T06:27:42.153Z,967.46
2018-02-16T06:28:42.310Z,967.45
2018-02-16T06:29:42.066Z,967.50
2018-02-16T06:30:42.030Z,967.54
2018-02-16T06:31:42.021Z,967.58
2018-02-16T06:32:41.935Z,967.58
2018-02-16T06:33:42.098Z,967.61
2018-02-16T06:34:41.850Z,967.65
2018-02-16T06:35:41.804Z,967.71
2018-02-16T06:36:41.870Z,967.70
2018-02-16T06:37:41.750Z,967.72
2018-02-16T06:38:41.910Z,967.71
2018-02-16T06:39:41.626Z,967.70
2018-02-16T06:40:41.589Z,967.71
2018-02-16T06:41:41.597Z,967.71
2018-02-16T06:42:41.499Z,967.71
2018-02-16T06:43:41.718Z,967.70
2018-02-16T06:44:41.413Z,967.72
2018-02-16T06:45:41.371Z,967.71
2018-02-16T06:46:41.405Z,967.77
2018-02-16T06:47:41.281Z,967.76
2018-02-16T06:48:41.398Z,967.78
2018-02-16T06:49:41.194Z,967.83
2018-02-16T06:50:41.152Z,967.81
2018-02-16T06:51:41.145Z,967.77
2018-02-16T06:52:41.063Z,967.80
2018-02-16T06:53:41.206Z,967.79
2018-02-16T06:54:40.974Z,967.89
2018-02-16T06:55:40.932Z,967.91
2018-02-16T06:56:40.980Z,967.95
2018-02-16T06:57:40.854Z,968.00
2018-02-16T06:58:41.010Z,967.98
2018-02-16T06:59:40.759Z,967.96
2018-02-16T07:00:40.719Z,967.97
2018-02-16T07:01:40.806Z,967.95
2018-02-16T07:02:40.626Z,967.94
2018-02-16T07:03:40.816Z,967.93
2018-02-16T07:04:40.539Z,967.88
2018-02-16T07:05:40.496Z,967.84
2018-02-16T07:06:40.513Z,967.85
2018-02-16T07:07:40.407Z,967.84
2018-02-16T07:08:40.521Z,967.91
2018-02-16T07:09:40.323Z,967.97
2018-02-16T07:10:40.276Z,968.02
2018-02-16T07:11:40.363Z,968.03
2018-02-16T07:12:40.195Z,968.07
2018-02-16T07:13:40.336Z,968.11
2018-02-16T07:14:40.104Z,968.09
2018-02-16T07:15:40.060Z,968.12
2018-02-16T07:16:40.056Z,968.17
2018-02-16T07:17:39.974Z,968.17
2018-02-16T07:18:40.133Z,968.11
2018-02-16T07:19:39.886Z,968.15
2018-02-16T07:20:39.839Z,968.14
2018-02-16T07:21:39.894Z,968.19
2018-02-16T07:22:39.754Z,968.21
2018-02-16T07:23:39.943Z,968.20
2018-02-16T07:24:39.668Z,968.20
2018-02-16T07:25:39.625Z,968.16
2018-02-16T07:26:39.620Z,968.16
2018-02-16T07:27:39.536Z,968.19
2018-02-16T07:28:39.732Z,968.25
2018-02-16T07:29:39.459Z,968.24
2018-02-16T07:30:39.412Z,968.26
2018-02-16T07:31:39.469Z,968.26
2018-02-16T07:32:39.320Z,968.28
2018-02-16T07:33:39.432Z,968.29
2018-02-16T07:34:39.231Z,968.28
2018-02-16T07:35:39.188Z,968.24
2018-02-16T07:36:39.202Z,968.28
2018-02-16T07:37:39.102Z,968.27
2018-02-16T07:38:39.242Z,968.31
2018-02-16T07:39:39.013Z,968.37
2018-02-16T07:40:38.970Z,968.41
2018-02-16T07:41:39.026Z,968.43
2018-02-16T07:42:38.884Z,968.47
2018-02-16T07:43:39.059Z,968.42
2018-02-16T07:44:38.796Z,968.46
2018-02-16T07:45:38.753Z,968.51
2018-02-16T07:46:38.728Z,968.50
2018-02-16T07:47:38.664Z,968.54
2018-02-16T07:48:38.840Z,968.52
2018-02-16T07:49:38.580Z,968.51
2018-02-16T07:50:38.535Z,968.52
2018-02-16T07:51:38.578Z,968.54
2018-02-16T07:52:38.446Z,968.54
2018-02-16T07:53:38.650Z,968.54
2018-02-16T07:54:38.361Z,968.55
2018-02-16T07:55:38.318Z,968.54
2018-02-16T07:56:38.307Z,968.55
2018-02-16T07:57:38.231Z,968.53
2018-02-16T07:58:38.331Z,968.53
2018-02-16T07:59:38.142Z,968.59
2018-02-16T08:00:38.100Z,968.57
2018-02-16T08:01:38.099Z,968.63
2018-02-16T08:02:38.012Z,968.62
2018-02-16T08:03:38.045Z,968.65
2018-02-16T08:04:37.934Z,968.76
2018-02-16T08:05:37.882Z,968.76
2018-02-16T08:06:37.960Z,968.81
2018-02-16T08:07:37.795Z,968.82
2018-02-16T08:08:37.955Z,968.77
2018-02-16T08:09:37.706Z,968.82
2018-02-16T08:10:37.663Z,968.84
2018-02-16T08:11:37.667Z,968.83
2018-02-16T08:12:37.578Z,968.83
2018-02-16T08:13:37.767Z,968.83
2018-02-16T08:14:37.491Z,968.81
2018-02-16T08:15:37.455Z,968.79
2018-02-16T08:16:37.494Z,968.82
2018-02-16T08:17:37.363Z,968.83
2018-02-16T08:18:37.580Z,968.84
2018-02-16T08:19:37.272Z,968.79
2018-02-16T08:20:37.228Z,968.74
2018-02-16T08:21:37.240Z,968.73
2018-02-16T08:22:37.141Z,968.74
2018-02-16T08:23:37.268Z,968.81
2018-02-16T08:24:37.058Z,968.76
2018-02-16T08:25:37.011Z,968.75
2018-02-16T08:26:37.070Z,968.81
2018-02-16T08:27:36.925Z,968.82
2018-02-16T08:28:37.060Z,968.90
2018-02-16T08:29:36.838Z,969.01
2018-02-16T08:30:36.794Z,969.00
2018-02-16T08:31:36.795Z,968.99
2018-02-16T08:32:36.705Z,968.93
2018-02-16T08:33:36.888Z,968.85
2018-02-16T08:34:36.633Z,968.81
2018-02-16T08:35:36.579Z,968.84
2018-02-16T08:36:36.603Z,968.87
2018-02-16T08:37:36.496Z,968.89
2018-02-16T08:38:36.687Z,969.00
2018-02-16T08:39:36.405Z,969.01
2018-02-16T08:40:36.362Z,969.04
2018-02-16T08:41:36.454Z,969.07
2018-02-16T08:42:36.277Z,969.06
2018-02-16T08:43:36.350Z,969.03
2018-02-16T08:44:36.223Z,969.00
2018-02-16T08:45:36.144Z,968.99
2018-02-16T08:46:36.146Z,968.92
2018-02-16T08:47:36.058Z,968.95
2018-02-16T08:48:36.193Z,968.97
2018-02-16T08:49:35.972Z,969.01
2018-02-16T08:50:35.932Z,968.98
2018-02-16T08:51:36.007Z,969.04
2018-02-16T08:52:35.840Z,969.03
2018-02-16T08:53:35.990Z,969.02
2018-02-16T08:54:35.755Z,969.02
2018-02-16T08:55:35.710Z,969.02
2018-02-16T08:56:35.717Z,969.02
2018-02-16T08:57:35.625Z,969.00
2018-02-16T08:58:35.801Z,969.03
2018-02-16T08:59:35.537Z,969.05
2018-02-16T09:00:35.496Z,969.08
2018-02-16T09:01:35.598Z,969.11
2018-02-16T09:02:35.402Z,969.13
2018-02-16T09:03:35.606Z,969.19
2018-02-16T09:04:35.323Z,969.21
2018-02-16T09:05:35.279Z,969.24
2018-02-16T09:06:35.273Z,969.22
2018-02-16T09:07:35.192Z,969.28
2018-02-16T09:08:35.393Z,969.31
2018-02-16T09:09:35.105Z,969.35
2018-02-16T09:10:35.063Z,969.33
2018-02-16T09:11:35.116Z,969.31
2018-02-16T09:12:34.975Z,969.31
2018-02-16T09:13:35.111Z,969.28
2018-02-16T09:14:34.888Z,969.24
2018-02-16T09:15:34.897Z,969.31
2018-02-16T09:16:34.820Z,969.30
2018-02-16T09:17:34.754Z,969.30
2018-02-16T09:18:34.924Z,969.25
2018-02-16T09:19:34.674Z,969.29
2018-02-16T09:20:34.631Z,969.29
2018-02-16T09:21:34.669Z,969.32
2018-02-16T09:22:34.541Z,969.34
2018-02-16T09:23:34.708Z,969.32
2018-02-16T09:24:34.456Z,969.29
2018-02-16T09:25:34.412Z,969.31
2018-02-16T09:26:34.498Z,969.29
2018-02-16T09:27:34.326Z,969.32
2018-02-16T09:28:34.501Z,969.30
2018-02-16T09:29:34.238Z,969.32
2018-02-16T09:30:34.194Z,969.34
2018-02-16T09:31:34.191Z,969.36
2018-02-16T09:32:34.111Z,969.39
2018-02-16T09:33:34.325Z,969.40
2018-02-16T09:34:34.024Z,969.41
2018-02-16T09:35:33.980Z,969.46
2018-02-16T09:36:33.937Z,969.39
2018-02-16T09:37:33.896Z,969.41
2018-02-16T09:38:34.025Z,969.44
2018-02-16T09:39:33.809Z,969.50
2018-02-16T09:40:33.768Z,969.51
2018-02-16T09:41:33.761Z,969.54
2018-02-16T09:42:33.678Z,969.55
2018-02-16T09:43:33.636Z,969.60
2018-02-16T09:44:33.591Z,969.59
2018-02-16T09:45:33.748Z,969.60
2018-02-16T09:46:33.506Z,969.60
2018-02-16T09:47:33.461Z,969.61
2018-02-16T09:48:33.421Z,969.62
2018-02-16T09:49:33.382Z,969.59
2018-02-16T09:50:33.526Z,969.58
2018-02-16T09:51:33.293Z,969.59
2018-02-16T09:52:33.249Z,969.58
2018-02-16T09:53:33.206Z,969.63
2018-02-16T09:54:33.207Z,969.61
2018-02-16T09:55:33.321Z,969.60
2018-02-16T09:56:33.075Z,969.63
2018-02-16T09:57:33.036Z,969.61
2018-02-16T09:58:33.073Z,969.65
2018-02-16T09:59:32.950Z,969.68
2018-02-16T10:00:33.130Z,969.71
2018-02-16T10:01:32.865Z,969.73
2018-02-16T10:02:32.830Z,969.72
2018-02-16T10:03:32.900Z,969.74
2018-02-16T10:04:32.738Z,969.73
2018-02-16T10:05:32.696Z,969.77
2018-02-16T10:06:32.654Z,969.78
2018-02-16T10:07:32.834Z,969.81
2018-02-16T10:08:32.569Z,969.81
2018-02-16T10:09:32.527Z,969.81
2018-02-16T10:10:32.519Z,969.78
2018-02-16T10:11:32.442Z,969.81
2018-02-16T10:12:32.642Z,969.83
2018-02-16T10:13:32.358Z,969.86
2018-02-16T10:14:32.345Z,969.87
2018-02-16T10:15:32.436Z,969.83
2018-02-16T10:16:32.230Z,969.82
2018-02-16T10:17:32.188Z,969.83
2018-02-16T10:18:32.185Z,969.79
2018-02-16T10:19:32.104Z,969.78
2018-02-16T10:20:32.242Z,969.83
2018-02-16T10:21:32.019Z,969.83
2018-02-16T10:22:31.978Z,969.84
2018-02-16T10:23:32.009Z,969.82
2018-02-16T10:24:31.893Z,969.87
2018-02-16T10:25:31.869Z,969.84
2018-02-16T10:26:31.809Z,969.83
2018-02-16T10:27:31.951Z,969.86
2018-02-16T10:28:31.725Z,969.88
2018-02-16T10:29:31.683Z,969.88
2018-02-16T10:30:31.749Z,969.89
2018-02-16T10:31:31.597Z,969.92
2018-02-16T10:32:31.765Z,969.88
2018-02-16T10:33:31.516Z,969.92
2018-02-16T10:34:31.471Z,969.92
2018-02-16T10:35:31.457Z,969.92
2018-02-16T10:36:31.389Z,969.95
2018-02-16T10:37:31.552Z,969.95
2018-02-16T10:38:31.303Z,969.97
2018-02-16T10:39:31.265Z,969.93
2018-02-16T10:40:31.259Z,969.94
2018-02-16T10:41:31.178Z,969.94
2018-02-16T10:42:31.290Z,969.97
2018-02-16T10:43:31.093Z,969.95
2018-02-16T10:44:31.055Z,969.97
2018-02-16T10:45:31.134Z,969.97
2018-02-16T10:46:30.968Z,970.00
2018-02-16T10:47:31.171Z,970.00
2018-02-16T10:48:30.882Z,970.01
2018-02-16T10:49:30.842Z,970.05
2018-02-16T10:50:30.860Z,970.14
2018-02-16T10:51:30.765Z,970.11
2018-02-16T10:52:30.972Z,970.13
2018-02-16T10:53:30.675Z,970.14
2018-02-16T10:54:30.633Z,970.20
2018-02-16T10:55:30.615Z,970.21
2018-02-16T10:56:30.551Z,970.26
2018-02-16T10:57:30.557Z,970.24
2018-02-16T10:58:30.526Z,970.20
2018-02-16T10:59:30.422Z,970.20
2018-02-16T11:00:30.517Z,970.17
2018-02-16T11:01:30.343Z,970.16
2018-02-16T11:02:30.460Z,970.20
2018-02-16T11:03:30.259Z,970.16
2018-02-16T11:04:30.216Z,970.15
2018-02-16T11:05:30.175Z,970.15
2018-02-16T11:06:30.129Z,970.15
2018-02-16T11:07:30.287Z,970.11
2018-02-16T11:08:30.050Z,970.14
2018-02-16T11:09:30.009Z,970.12
2018-02-16T11:10:30.071Z,970.15
2018-02-16T11:11:29.923Z,970.11
2018-02-16T11:12:30.093Z,970.12
2018-02-16T11:13:29.838Z,970.09
2018-02-16T11:14:29.798Z,970.14
2018-02-16T11:15:29.766Z,970.14
2018-02-16T11:16:29.715Z,970.16
2018-02-16T11:17:29.872Z,970.18
2018-02-16T11:18:29.635Z,970.18
2018-02-16T11:19:29.588Z,970.16
2018-02-16T11:20:29.604Z,970.18
2018-02-16T11:21:29.511Z,970.21
2018-02-16T11:22:29.673Z,970.20
2018-02-16T11:23:29.424Z,970.17
2018-02-16T11:24:29.383Z,970.17
2018-02-16T11:25:29.339Z,970.19
2018-02-16T11:26:29.297Z,970.21
2018-02-16T11:27:29.486Z,970.20
2018-02-16T11:28:29.216Z,970.20
2018-02-16T11:29:29.174Z,970.24
2018-02-16T11:30:29.178Z,970.25
2018-02-16T11:31:29.091Z,970.25
2018-02-16T11:32:29.302Z,970.28
2018-02-16T11:33:29.013Z,970.24
2018-02-16T11:34:28.967Z,970.27
2018-02-16T11:35:28.951Z,970.26
2018-02-16T11:36:28.883Z,970.30
2018-02-16T11:37:29.011Z,970.27
2018-02-16T11:38:28.800Z,970.31
2018-02-16T11:39:28.775Z,970.27
2018-02-16T11:40:28.837Z,970.25
2018-02-16T11:41:28.676Z,970.26
2018-02-16T11:42:28.806Z,970.25
2018-02-16T11:43:28.607Z,970.24
2018-02-16T11:44:28.550Z,970.24
2018-02-16T11:45:28.580Z,970.22
2018-02-16T11:46:28.472Z,970.25
2018-02-16T11:47:28.607Z,970.20
2018-02-16T11:48:28.384Z,970.24
2018-02-16T11:49:28.342Z,970.26
2018-02-16T11:50:28.340Z,970.25
2018-02-16T11:51:28.261Z,970.21
2018-02-16T11:52:28.413Z,970.20
2018-02-16T11:53:28.178Z,970.20
2018-02-16T11:54:28.134Z,970.23
2018-02-16T11:55:28.125Z,970.19
2018-02-16T11:56:28.053Z,970.22
2018-02-16T11:57:28.216Z,970.21
2018-02-16T11:58:27.969Z,970.21
2018-02-16T11:59:27.931Z,970.22
2018-02-16T12:00:27.946Z,970.22
2018-02-16T12:01:27.845Z,970.18
2018-02-16T12:02:28.016Z,970.23
2018-02-16T12:03:27.763Z,970.20
2018-02-16T12:04:27.723Z,970.16
2018-02-16T12:05:27.761Z,970.18
2018-02-16T12:06:27.640Z,970.19
2018-02-16T12:07:27.805Z,970.15
2018-02-16T12:08:27.557Z,970.14
2018-02-16T12:09:27.516Z,970.19
2018-02-16T12:10:27.606Z,970.15
2018-02-16T12:11:27.433Z,970.15
2018-02-16T12:12:27.616Z,970.17
2018-02-16T12:13:27.350Z,970.15
2018-02-16T12:14:27.308Z,970.14
2018-02-16T12:15:27.267Z,970.15
2018-02-16T12:16:27.226Z,970.18
2018-02-16T12:17:27.410Z,970.15
2018-02-16T12:18:27.144Z,970.14
2018-02-16T12:19:27.100Z,970.17
2018-02-16T12:20:27.158Z,970.14
2018-02-16T12:21:27.020Z,970.13
2018-02-16T12:22:27.227Z,970.12
2018-02-16T12:23:26.937Z,970.19
2018-02-16T12:24:26.896Z,970.18
2018-02-16T12:25:26.968Z,970.16
2018-02-16T12:26:26.812Z,970.12
2018-02-16T12:27:26.929Z,970.10
2018-02-16T12:28:26.732Z,970.11
2018-02-16T12:29:26.690Z,970.07
2018-02-16T12:30:26.713Z,970.10
2018-02-16T12:31:26.607Z,970.04
2018-02-16T12:32:26.746Z,970.06
2018-02-16T12:33:26.526Z,970.03
2018-02-16T12:34:26.486Z,970.00
2018-02-16T12:35:26.508Z,970.05
2018-02-16T12:36:26.398Z,970.07
2018-02-16T12:37:26.547Z,970.08
2018-02-16T12:38:26.317Z,970.07
2018-02-16T12:39:26.277Z,970.05
2018-02-16T12:40:26.279Z,970.07
2018-02-16T12:41:26.196Z,970.04
2018-02-16T12:42:26.336Z,970.10
2018-02-16T12:43:26.121Z,970.08
2018-02-16T12:44:26.071Z,970.06
2018-02-16T12:45:26.081Z,970.03
2018-02-16T12:46:25.988Z,970.05
2018-02-16T12:47:26.141Z,970.05
2018-02-16T12:48:25.912Z,970.05
2018-02-16T12:49:25.867Z,970.06
2018-02-16T12:50:25.922Z,970.04
2018-02-16T12:51:25.783Z,970.07
2018-02-16T12:52:25.940Z,970.05
2018-02-16T12:53:25.700Z,970.06
2018-02-16T12:54:25.660Z,970.06
2018-02-16T12:55:25.646Z,970.04
2018-02-16T12:56:25.576Z,969.98
2018-02-16T12:57:25.749Z,970.04
2018-02-16T12:58:25.494Z,970.03
2018-02-16T12:59:25.451Z,970.04
2018-02-16T13:00:25.453Z,970.07
2018-02-16T13:01:25.371Z,970.03
2018-02-16T13:02:25.554Z,970.05
2018-02-16T13:03:25.292Z,970.07
2018-02-16T13:04:25.248Z,970.08
2018-02-16T13:05:25.209Z,970.05
2018-02-16T13:06:25.166Z,970.05
2018-02-16T13:07:25.370Z,970.05
2018-02-16T13:08:25.081Z,970.05
2018-02-16T13:09:25.040Z,970.04
2018-02-16T13:10:25.137Z,970.06
2018-02-16T13:11:24.958Z,970.04
2018-02-16T13:12:25.164Z,970.08
2018-02-16T13:13:24.875Z,970.11
2018-02-16T13:14:24.838Z,970.10
2018-02-16T13:15:24.819Z,970.08
2018-02-16T13:16:24.750Z,970.11
2018-02-16T13:17:24.970Z,970.09
2018-02-16T13:18:24.670Z,970.10
2018-02-16T13:19:24.628Z,970.08
2018-02-16T13:20:24.692Z,970.11
2018-02-16T13:21:24.546Z,970.06
2018-02-16T13:22:24.678Z,970.03
2018-02-16T13:23:24.467Z,970.07
2018-02-16T13:24:24.421Z,970.08
2018-02-16T13:25:24.398Z,970.09
2018-02-16T13:26:24.338Z,970.11
2018-02-16T13:27:24.452Z,970.10
2018-02-16T13:28:24.258Z,970.08
2018-02-16T13:29:24.216Z,970.08
2018-02-16T13:30:24.215Z,970.10
2018-02-16T13:31:24.129Z,970.11
2018-02-16T13:32:24.276Z,970.12
2018-02-16T13:33:24.058Z,970.12
2018-02-16T13:34:24.009Z,970.12
2018-02-16T13:35:23.995Z,970.09
2018-02-16T13:36:23.928Z,970.07
2018-02-16T13:37:24.074Z,970.07
2018-02-16T13:38:23.844Z,970.08
2018-02-16T13:39:23.803Z,970.07
2018-02-16T13:40:23.801Z,970.10
2018-02-16T13:41:23.722Z,970.07
2018-02-16T13:42:23.882Z,970.05
2018-02-16T13:43:23.640Z,970.05
2018-02-16T13:44:23.598Z,970.09
2018-02-16T13:45:23.610Z,970.07
2018-02-16T13:46:23.515Z,970.08
2018-02-16T13:47:23.685Z,970.03
2018-02-16T13:48:23.427Z,970.08
2018-02-16T13:49:23.391Z,970.06